Clifton, KS

7:08 AM CST on December 09, 2019 (GMT -0600)
Clifton | | Change Station
Active Advisory: Wind Advisory

Elev 1322 ft 39.58 °N, 97.29 °W | Updated 7 minutes ago

Mostly Cloudy
Mostly Cloudy
26.5 °F
Feels Like 16 °F
N
11
Wind Variable Wind from NNW
Gusts 30.0 mph

Today
High -- | Low -- °F
--% Chance of Precip.
Yesterday
High -- | Low -- °F
Precip. -- in
Pressure 29.84 in
Visibility 10.0 miles
Clouds Clear
Windchill 16 °F
Dew Point 20 °F
Humidity 76%
Rainfall 0.00 in
Snow Depth Not available.
7:37 AM 5:04 PM
Waxing Gibbous, 92% visible
METAR KCNK 091255Z AUTO 35022G38KT 10SM CLR M03/M08 A2981 RMK AO2 PK WND 33038/1245 SLP103 T10281083
Pressure 29.84 in
Visibility 10.0 miles
Clouds Clear
Windchill 16 °F
Dew Point 20 °F
Humidity 76%
Rainfall 0.00 in
Snow Depth Not available.
7:37 AM 5:04 PM
Waxing Gibbous, 92% visible
METAR KCNK 091255Z AUTO 35022G38KT 10SM CLR M03/M08 A2981 RMK AO2 PK WND 33038/1245 SLP103 T10281083

Get Your Daily Forecast Email!

Thanks for signing up!

Be on the lookout for a verification email in your inbox.

You'll start receiving severe weather alerts in your inbox..

×

10-Day Weather Forecast

Almanac

Astronomy

Dec. 09, 2019 Rise Set
Actual Time
Civil Twilight
Nautical Twilight
Astronomical Twilight
Moon
Length of Visible Light
Length of Day
Tomorrow will be .
, % of the Moon is Illuminated

Today's Extremes

State Highs State Lows

Community

WunderPhotos

Category 6

Welcome to Category 6. This is the collective home for Weather Underground's featured writeups by Dr. Jeff Masters (right), Bob Henson (left), Chris Burt, and other regular contributors.

Nearby

Air Quality

  Air Quality AQ Index Pollutant
Not available.

Snow Depth

Station Depth Elevation

Earthquake Activity

City Distance Mag. Time & Date
Minimum magnitude displayed is 2.5.

Coastal Water Temperatures

Place Temperature

Stations

Nearby Weather Stations

Station Location Temp. Windchill Dew Point Humidity Wind Precip. Elev Updated Type
                   

Watches & Warnings

Wind Advisory
Issued: 7:03 AM CST Dec. 9, 2019 – National Weather Service

... Wind Advisory remains in effect until 10 am CST this morning...

* what... northwest winds 20 to 30 mph with gusts up to 45 mph.

* Where... Clay, Washington, cloud, Republic and Ottawa counties.

* When... northwesterly winds rapidly increase by 7 am, with the
strongest winds occurring before mid morning. Gusty winds
gradually subside through the mid afternoon.

* Impacts... gusty winds could blow around unsecured objects.
Tree limbs could be blown down and a few power outages may
result.

Precautionary/preparedness actions...

Use extra caution when driving, especially if operating a high
profile vehicle. Secure outdoor objects.